createdAt,value
2022-08-17T00:00:52.261Z,1.50
2022-08-17T00:03:20.660Z,1.20
2022-08-17T00:05:53.203Z,1.43
2022-08-17T00:08:31.420Z,1.30
2022-08-17T00:10:58.375Z,1.20
2022-08-17T00:13:27.471Z,1.40
2022-08-17T00:15:59.712Z,1.20
2022-08-17T00:19:01.685Z,1.30
2022-08-17T00:21:14.780Z,1.37
2022-08-17T00:23:44.411Z,1.30
2022-08-17T00:26:16.116Z,1.30
2022-08-17T00:29:02.657Z,1.37
2022-08-17T00:31:29.196Z,1.30
2022-08-17T00:33:55.764Z,1.30
2022-08-17T00:36:24.100Z,1.30
2022-08-17T00:38:50.884Z,1.50
2022-08-17T00:41:20.120Z,1.30
2022-08-17T00:43:54.914Z,1.30
2022-08-17T00:46:24.794Z,1.40
2022-08-17T00:48:51.312Z,1.40
2022-08-17T00:51:42.687Z,1.53
2022-08-17T00:54:18.783Z,1.40
2022-08-17T00:56:47.873Z,1.30
2022-08-17T00:59:16.375Z,1.20
2022-08-17T01:01:43.152Z,1.30
2022-08-17T01:04:09.920Z,1.40
2022-08-17T01:06:36.443Z,1.40
2022-08-17T01:09:03.813Z,1.37
2022-08-17T01:11:30.884Z,1.43
2022-08-17T01:13:57.431Z,1.40
2022-08-17T01:16:28.644Z,1.30
2022-08-17T01:18:57.692Z,1.20
2022-08-17T01:21:38.548Z,1.40
2022-08-17T01:24:05.293Z,1.30
2022-08-17T01:26:33.038Z,1.40
2022-08-17T01:29:00.711Z,1.30
2022-08-17T01:31:29.432Z,1.47
2022-08-17T01:33:58.312Z,1.60
2022-08-17T01:36:24.956Z,1.57
2022-08-17T01:38:51.514Z,1.40
2022-08-17T01:41:18.067Z,1.20
2022-08-17T01:43:46.013Z,1.40
2022-08-17T01:46:21.088Z,1.40
2022-08-17T01:48:47.831Z,1.20
2022-08-17T01:51:15.553Z,1.30
2022-08-17T01:53:43.207Z,1.40
2022-08-17T01:56:11.263Z,1.40
2022-08-17T01:58:38.101Z,1.70
2022-08-17T02:01:05.608Z,1.40
2022-08-17T02:03:33.076Z,1.20
2022-08-17T02:05:59.625Z,1.53
2022-08-17T02:08:37.073Z,1.30
2022-08-17T02:11:11.977Z,1.20
2022-08-17T02:13:38.839Z,1.20
2022-08-17T02:16:05.486Z,1.30
2022-08-17T02:18:32.016Z,1.40
2022-08-17T02:20:58.592Z,1.50
2022-08-17T02:23:25.460Z,1.40
2022-08-17T02:25:52.051Z,1.40
2022-08-17T02:28:18.797Z,1.40
2022-08-17T02:31:00.858Z,1.50
2022-08-17T02:33:42.827Z,1.40
2022-08-17T02:36:10.871Z,1.40
2022-08-17T02:38:37.934Z,1.30
2022-08-17T02:41:04.631Z,1.63
2022-08-17T02:43:31.225Z,1.40
2022-08-17T02:45:57.764Z,1.30
2022-08-17T02:48:30.648Z,1.40
2022-08-17T02:50:58.572Z,1.40
2022-08-17T02:53:25.778Z,1.33
2022-08-17T02:55:52.574Z,1.33
2022-08-17T02:58:34.413Z,1.60
2022-08-17T03:01:06.170Z,1.33
2022-08-17T03:03:32.736Z,1.50
2022-08-17T03:05:59.281Z,1.20
2022-08-17T03:08:25.847Z,1.30
2022-08-17T03:10:52.419Z,1.50
2022-08-17T03:13:19.208Z,1.43
2022-08-17T03:15:46.162Z,1.47
2022-08-17T03:18:18.996Z,1.50
2022-08-17T03:20:52.048Z,1.30
2022-08-17T03:23:18.705Z,1.30
2022-08-17T03:25:50.596Z,1.50
2022-08-17T03:28:20.029Z,1.43
2022-08-17T03:30:46.617Z,1.30
2022-08-17T03:33:13.208Z,1.40
2022-08-17T03:35:40.518Z,1.40
2022-08-17T03:38:08.095Z,1.40
2022-08-17T03:40:56.290Z,1.40
2022-08-17T03:43:21.733Z,1.50
2022-08-17T03:46:10.922Z,1.53
2022-08-17T03:49:11.931Z,1.50
2022-08-17T03:51:56.893Z,1.47
2022-08-17T03:54:41.825Z,1.40
2022-08-17T03:57:09.558Z,1.30
2022-08-17T03:59:36.383Z,1.50
2022-08-17T04:02:09.629Z,1.50
2022-08-17T04:04:37.020Z,1.40
2022-08-17T04:07:03.943Z,1.33
2022-08-17T04:09:30.517Z,1.60
2022-08-17T04:11:57.309Z,1.40
2022-08-17T04:14:36.162Z,1.47
2022-08-17T04:17:19.679Z,1.50
2022-08-17T04:19:46.636Z,1.50
2022-08-17T04:22:30.310Z,1.43
2022-08-17T04:24:58.705Z,1.57
2022-08-17T04:27:25.381Z,1.60
2022-08-17T04:29:55.312Z,1.60
2022-08-17T04:32:25.142Z,1.50
2022-08-17T04:35:09.725Z,1.67
2022-08-17T04:37:36.250Z,1.50
2022-08-17T04:40:22.041Z,1.40
2022-08-17T04:43:04.609Z,1.57
2022-08-17T04:45:32.184Z,1.50
2022-08-17T04:48:00.643Z,1.57
2022-08-17T04:50:27.579Z,1.30
2022-08-17T04:52:54.243Z,1.43
2022-08-17T04:55:21.005Z,1.30
2022-08-17T04:57:47.613Z,1.67
2022-08-17T05:00:14.425Z,1.57
2022-08-17T05:02:50.917Z,1.50
2022-08-17T05:05:21.711Z,1.60
2022-08-17T05:07:50.681Z,1.60
2022-08-17T05:10:17.402Z,1.50
2022-08-17T05:12:43.953Z,1.50
2022-08-17T05:15:12.450Z,1.50
2022-08-17T05:17:38.973Z,1.50
2022-08-17T05:20:06.170Z,1.70
2022-08-17T05:22:32.750Z,1.60
2022-08-17T05:24:59.278Z,1.50
2022-08-17T05:27:29.829Z,1.63
2022-08-17T05:30:02.517Z,1.43
2022-08-17T05:32:39.625Z,1.40
2022-08-17T05:35:14.484Z,1.60
2022-08-17T05:37:41.037Z,1.77
2022-08-17T05:40:08.100Z,1.50
2022-08-17T05:42:34.636Z,1.70
2022-08-17T05:45:01.181Z,1.53
2022-08-17T05:47:28.009Z,1.63
2022-08-17T05:49:54.638Z,1.30
2022-08-17T05:52:21.090Z,1.60
2022-08-17T05:55:05.687Z,1.50
2022-08-17T05:57:43.596Z,1.50
2022-08-17T06:00:30.005Z,1.70
2022-08-17T06:03:16.081Z,1.53
2022-08-17T06:06:05.139Z,1.57
2022-08-17T06:08:40.692Z,1.70
2022-08-17T06:11:31.495Z,1.50
2022-08-17T06:14:01.763Z,1.70
2022-08-17T06:16:34.470Z,1.60
2022-08-17T06:19:22.816Z,1.33
2022-08-17T06:21:51.573Z,1.63
2022-08-17T06:24:21.739Z,1.60
2022-08-17T06:26:48.265Z,1.70
2022-08-17T06:29:18.616Z,1.47
2022-08-17T06:31:45.593Z,1.50
2022-08-17T06:34:12.129Z,1.70
2022-08-17T06:37:01.655Z,1.77
2022-08-17T06:39:39.245Z,1.60
2022-08-17T06:43:02.718Z,1.50
2022-08-17T06:45:04.140Z,1.73
2022-08-17T06:47:49.892Z,1.40
2022-08-17T06:50:29.801Z,1.67
2022-08-17T06:52:59.990Z,1.60
2022-08-17T06:55:34.456Z,1.70
2022-08-17T06:58:15.755Z,1.70
2022-08-17T07:00:44.621Z,1.53
2022-08-17T07:03:37.481Z,1.60
2022-08-17T07:06:16.190Z,1.60
2022-08-17T07:08:55.708Z,1.57
2022-08-17T07:11:58.584Z,1.50
2022-08-17T07:14:38.405Z,1.40
2022-08-17T07:17:08.736Z,1.80
2022-08-17T07:19:36.122Z,1.47
2022-08-17T07:22:05.445Z,1.70
2022-08-17T07:24:58.484Z,1.63
2022-08-17T07:27:35.536Z,1.70
2022-08-17T07:30:10.538Z,1.30
2022-08-17T07:32:37.739Z,1.50
2022-08-17T07:35:22.067Z,1.73
2022-08-17T07:37:56.088Z,1.60
2022-08-17T07:40:41.336Z,1.60
2022-08-17T07:43:21.939Z,1.70
2022-08-17T07:46:29.651Z,1.53
2022-08-17T07:49:39.251Z,1.50
2022-08-17T07:52:24.088Z,1.53
2022-08-17T07:54:57.914Z,1.60
2022-08-17T07:57:30.491Z,1.57
2022-08-17T07:59:59.916Z,1.50
2022-08-17T08:02:34.225Z,1.70
2022-08-17T08:05:06.599Z,1.60
2022-08-17T08:07:39.523Z,1.40
2022-08-17T08:10:09.595Z,1.70
2022-08-17T08:12:43.883Z,1.67
2022-08-17T08:15:18.745Z,1.50
2022-08-17T08:17:56.450Z,1.50
2022-08-17T08:20:51.533Z,1.60
2022-08-17T08:23:20.597Z,1.60
2022-08-17T08:26:21.205Z,1.70
2022-08-17T08:29:01.371Z,1.70
2022-08-17T08:31:55.278Z,1.57
2022-08-17T08:34:44.432Z,1.60
2022-08-17T08:37:27.615Z,1.70
2022-08-17T08:40:13.095Z,1.80
2022-08-17T08:42:48.893Z,1.60
2022-08-17T08:45:21.901Z,1.67
2022-08-17T08:48:07.088Z,1.50
2022-08-17T08:50:57.950Z,1.70
2022-08-17T08:53:51.982Z,1.63
2022-08-17T08:56:25.199Z,1.40
2022-08-17T08:58:56.191Z,1.70
2022-08-17T09:01:47.139Z,1.50
2022-08-17T09:05:10.382Z,1.70
2022-08-17T09:07:44.781Z,1.50
2022-08-17T09:10:25.420Z,1.77
2022-08-17T09:13:10.135Z,1.53
2022-08-17T09:15:46.360Z,1.40
2022-08-17T09:19:00.457Z,1.47
2022-08-17T09:21:13.659Z,1.50
2022-08-17T09:23:59.906Z,1.30
2022-08-17T09:27:04.889Z,1.60
2022-08-17T09:29:35.134Z,1.67
2022-08-17T09:32:23.633Z,1.50
2022-08-17T09:34:53.532Z,1.50
2022-08-17T09:37:28.053Z,1.63
2022-08-17T09:40:12.121Z,1.87
2022-08-17T09:43:15.945Z,1.60
2022-08-17T09:45:50.646Z,1.50
2022-08-17T09:48:20.469Z,1.60
2022-08-17T09:51:04.739Z,1.60
2022-08-17T09:53:33.396Z,1.60
2022-08-17T09:56:14.762Z,1.70
2022-08-17T09:59:08.715Z,1.60
2022-08-17T10:01:38.423Z,1.77
2022-08-17T10:04:29.620Z,1.60
2022-08-17T10:07:11.443Z,1.50
2022-08-17T10:09:56.930Z,1.57
2022-08-17T10:12:38.580Z,1.50
2022-08-17T10:15:15.899Z,1.70
2022-08-17T10:17:50.660Z,1.60
2022-08-17T10:20:33.226Z,1.50
2022-08-17T10:23:22.003Z,1.70
2022-08-17T10:26:04.108Z,1.63
2022-08-17T10:28:36.544Z,1.50
2022-08-17T10:31:34.441Z,1.60
2022-08-17T10:34:40.432Z,1.50
2022-08-17T10:37:30.345Z,1.47
2022-08-17T10:40:27.983Z,1.50
2022-08-17T10:42:59.098Z,1.40
2022-08-17T10:45:34.814Z,1.60
2022-08-17T10:48:06.624Z,1.70
2022-08-17T10:50:57.639Z,1.60
2022-08-17T10:53:33.314Z,1.53
2022-08-17T10:56:11.780Z,1.50
2022-08-17T10:58:53.886Z,1.50
2022-08-17T11:01:32.667Z,1.50
2022-08-17T11:04:21.211Z,1.47
2022-08-17T11:07:08.892Z,1.53
2022-08-17T11:09:56.703Z,1.50
2022-08-17T11:12:38.426Z,1.40
2022-08-17T11:15:32.797Z,1.30
2022-08-17T11:18:32.984Z,1.57
2022-08-17T11:21:20.809Z,1.50
2022-08-17T11:24:06.113Z,1.40
2022-08-17T11:26:34.620Z,1.50
2022-08-17T11:29:05.255Z,1.60
2022-08-17T11:31:39.873Z,1.50
2022-08-17T11:34:09.424Z,1.40
2022-08-17T11:36:38.919Z,1.60
2022-08-17T11:39:21.143Z,1.60
2022-08-17T11:41:59.669Z,1.60
2022-08-17T11:44:26.105Z,1.70
2022-08-17T11:47:27.358Z,1.70
2022-08-17T11:50:35.120Z,1.80
2022-08-17T11:53:01.724Z,1.60
2022-08-17T11:55:37.457Z,1.57
2022-08-17T11:58:29.085Z,1.50
2022-08-17T12:01:00.265Z,1.43
2022-08-17T12:03:33.300Z,1.50
2022-08-17T12:06:05.945Z,1.67
2022-08-17T12:08:33.859Z,1.60
2022-08-17T12:11:12.279Z,1.50
2022-08-17T12:13:46.636Z,1.60
2022-08-17T12:16:17.431Z,1.70
2022-08-17T12:19:02.510Z,1.43
2022-08-17T12:21:46.592Z,1.50
2022-08-17T12:24:23.142Z,1.60
2022-08-17T12:26:56.453Z,1.50
2022-08-17T12:29:38.338Z,1.60
2022-08-17T12:32:06.789Z,1.50
2022-08-17T12:34:40.819Z,1.50
2022-08-17T12:37:31.520Z,1.70
2022-08-17T12:40:04.927Z,1.43
2022-08-17T12:42:39.305Z,1.47
2022-08-17T12:45:08.073Z,1.60
2022-08-17T12:47:37.635Z,1.70
2022-08-17T12:50:08.154Z,1.53
2022-08-17T12:52:58.515Z,1.57
2022-08-17T12:55:27.802Z,1.70
2022-08-17T12:58:00.843Z,1.53
2022-08-17T13:00:38.149Z,1.50
2022-08-17T13:03:13.383Z,1.57
2022-08-17T13:05:54.873Z,1.70
2022-08-17T13:08:38.014Z,1.67
2022-08-17T13:11:24.897Z,1.70
2022-08-17T13:13:54.380Z,1.43
2022-08-17T13:16:26.564Z,1.63
2022-08-17T13:19:15.616Z,1.80
2022-08-17T13:22:01.240Z,1.30
2022-08-17T13:24:38.228Z,1.50
2022-08-17T13:27:10.417Z,1.60
2022-08-17T13:29:52.899Z,1.50
2022-08-17T13:32:44.098Z,1.50
2022-08-17T13:35:39.898Z,1.63
2022-08-17T13:38:15.831Z,1.43
2022-08-17T13:40:50.019Z,1.40
2022-08-17T13:43:38.612Z,1.50
2022-08-17T13:46:10.262Z,1.53
2022-08-17T13:48:36.864Z,1.60
2022-08-17T13:51:20.031Z,1.60
2022-08-17T13:53:51.113Z,1.50
2022-08-17T13:56:38.318Z,1.57
2022-08-17T13:59:16.861Z,1.60
2022-08-17T14:02:02.794Z,1.80
2022-08-17T14:04:31.660Z,1.47
2022-08-17T14:06:59.645Z,1.60
2022-08-17T14:09:31.362Z,1.43
2022-08-17T14:12:00.178Z,1.60
2022-08-17T14:14:26.726Z,1.60
2022-08-17T14:16:53.449Z,1.60
2022-08-17T14:19:21.924Z,1.60
2022-08-17T14:21:48.716Z,1.60
2022-08-17T14:24:27.780Z,1.60
2022-08-17T14:26:54.710Z,1.60
2022-08-17T14:29:21.664Z,1.50
2022-08-17T14:31:53.221Z,1.70
2022-08-17T14:34:21.136Z,1.60
2022-08-17T14:36:48.658Z,1.47
2022-08-17T14:39:15.489Z,1.50
2022-08-17T14:41:42.085Z,1.50
2022-08-17T14:44:12.382Z,1.67
2022-08-17T14:46:40.788Z,1.60
2022-08-17T14:49:08.435Z,1.50
2022-08-17T14:51:39.724Z,1.60
2022-08-17T14:54:11.771Z,1.70
2022-08-17T14:57:22.301Z,1.40
2022-08-17T14:59:44.887Z,1.60
2022-08-17T15:02:11.759Z,2.00
2022-08-17T15:04:43.384Z,2.07
2022-08-17T15:07:12.018Z,1.90
2022-08-17T15:09:38.999Z,1.83
2022-08-17T15:12:08.360Z,1.80
2022-08-17T15:14:35.466Z,2.10
2022-08-17T15:17:05.674Z,1.90
2022-08-17T15:19:32.198Z,1.90
2022-08-17T15:21:58.763Z,1.80
2022-08-17T15:24:25.316Z,2.00
2022-08-17T15:26:51.865Z,2.33
2022-08-17T15:29:18.396Z,2.10
2022-08-17T15:31:44.984Z,2.13
2022-08-17T15:34:11.901Z,2.30
2022-08-17T15:36:38.904Z,2.03
2022-08-17T15:39:14.472Z,2.33
2022-08-17T15:41:47.261Z,2.30
2022-08-17T15:44:32.509Z,2.10
2022-08-17T15:47:01.332Z,2.20
2022-08-17T15:49:27.932Z,2.30
2022-08-17T15:51:54.457Z,2.43
2022-08-17T15:54:22.504Z,2.57
2022-08-17T15:56:49.987Z,2.80
2022-08-17T15:59:16.557Z,2.30
2022-08-17T16:03:01.430Z,3.00
2022-08-17T16:04:31.815Z,2.63
2022-08-17T16:06:59.331Z,2.40
2022-08-17T16:09:25.871Z,2.47
2022-08-17T16:11:55.278Z,2.70
2022-08-17T16:14:22.789Z,2.57
2022-08-17T16:16:50.749Z,2.30
2022-08-17T16:19:17.280Z,2.57
2022-08-17T16:21:43.845Z,2.40
2022-08-17T16:24:13.591Z,2.50
2022-08-17T16:26:41.457Z,2.50
2022-08-17T16:29:08.290Z,2.50
2022-08-17T16:31:35.991Z,2.30
2022-08-17T16:34:17.550Z,2.30
2022-08-17T16:36:51.809Z,2.67
2022-08-17T16:39:26.872Z,2.60
2022-08-17T16:41:53.664Z,2.40
2022-08-17T16:44:20.777Z,2.60
2022-08-17T16:46:47.750Z,2.20
2022-08-17T16:49:29.655Z,2.50
2022-08-17T16:52:01.681Z,2.93
2022-08-17T16:54:28.333Z,2.33
2022-08-17T16:56:54.867Z,2.30
2022-08-17T16:59:30.883Z,2.50
2022-08-17T17:02:04.801Z,2.40
2022-08-17T17:04:31.344Z,2.70
2022-08-17T17:07:24.619Z,2.70
2022-08-17T17:09:55.251Z,2.17
2022-08-17T17:12:58.141Z,2.10
2022-08-17T17:15:09.091Z,2.60
2022-08-17T17:17:37.230Z,2.23
2022-08-17T17:20:25.782Z,2.40
2022-08-17T17:23:09.193Z,2.20
2022-08-17T17:25:45.307Z,2.50
2022-08-17T17:28:43.283Z,2.40
2022-08-17T17:31:18.532Z,2.53
2022-08-17T17:33:50.628Z,2.30
2022-08-17T17:36:50.892Z,2.00
2022-08-17T17:39:20.374Z,2.00
2022-08-17T17:41:48.153Z,2.30
2022-08-17T17:44:17.970Z,2.30
2022-08-17T17:46:51.204Z,2.30
2022-08-17T17:49:18.182Z,1.97
2022-08-17T17:52:16.892Z,2.47
2022-08-17T17:55:04.532Z,2.00
2022-08-17T17:58:13.288Z,2.40
2022-08-17T18:01:11.650Z,2.20
2022-08-17T18:04:17.581Z,2.20
2022-08-17T18:07:02.462Z,2.13
2022-08-17T18:09:51.859Z,1.93
2022-08-17T18:12:27.916Z,2.53
2022-08-17T18:15:15.373Z,2.20
2022-08-17T18:18:17.142Z,2.13
2022-08-17T18:20:53.772Z,2.30
2022-08-17T18:23:27.950Z,2.30
2022-08-17T18:25:55.849Z,2.50
2022-08-17T18:28:27.474Z,2.43
2022-08-17T18:31:04.181Z,2.23
2022-08-17T18:33:30.764Z,2.20
2022-08-17T18:35:59.217Z,2.80
2022-08-17T18:38:39.404Z,2.80
2022-08-17T18:41:18.650Z,2.30
2022-08-17T18:43:53.581Z,2.67
2022-08-17T18:46:35.052Z,2.80
2022-08-17T18:49:04.389Z,2.03
2022-08-17T18:51:42.336Z,2.70
2022-08-17T18:54:09.411Z,2.50
2022-08-17T18:56:36.901Z,2.50
2022-08-17T18:59:16.763Z,2.70
2022-08-17T19:02:20.709Z,2.37
2022-08-17T19:05:13.222Z,3.00
2022-08-17T19:07:42.575Z,2.80
2022-08-17T19:10:20.072Z,2.40
2022-08-17T19:13:12.590Z,2.43
2022-08-17T19:15:42.932Z,2.60
2022-08-17T19:18:16.398Z,2.60
2022-08-17T19:21:10.282Z,2.60
2022-08-17T19:23:53.567Z,2.40
2022-08-17T19:26:54.646Z,2.27
2022-08-17T19:29:38.757Z,2.50
2022-08-17T19:32:06.993Z,5.30
2022-08-17T19:34:34.791Z,2.87
2022-08-17T19:37:07.535Z,2.50
2022-08-17T19:39:42.320Z,2.30
2022-08-17T19:42:11.936Z,2.90
2022-08-17T19:45:03.762Z,2.80
2022-08-17T19:47:55.589Z,2.43
2022-08-17T19:50:45.609Z,2.30
2022-08-17T19:54:04.399Z,2.40
2022-08-17T19:57:01.702Z,2.33
2022-08-17T19:59:48.692Z,2.27
2022-08-17T20:02:28.151Z,2.50
2022-08-17T20:04:56.775Z,2.30
2022-08-17T20:07:46.470Z,2.57
2022-08-17T20:10:54.504Z,2.87
2022-08-17T20:13:34.383Z,2.60
2022-08-17T20:16:01.913Z,3.00
2022-08-17T20:18:34.245Z,2.30
2022-08-17T20:21:05.236Z,2.80
2022-08-17T20:23:42.211Z,2.60
2022-08-17T20:26:28.052Z,2.40
2022-08-17T20:29:09.225Z,2.50
2022-08-17T20:31:45.901Z,2.53
2022-08-17T20:34:30.822Z,2.67
2022-08-17T20:37:10.443Z,2.77
2022-08-17T20:39:50.618Z,2.50
2022-08-17T20:42:20.205Z,2.60
2022-08-17T20:44:48.490Z,2.63
2022-08-17T20:47:18.498Z,2.33
2022-08-17T20:49:44.932Z,2.53
2022-08-17T20:52:13.672Z,2.43
2022-08-17T20:54:47.609Z,2.40
2022-08-17T20:57:32.487Z,2.50
2022-08-17T21:00:16.424Z,2.20
2022-08-17T21:02:49.477Z,2.40
2022-08-17T21:05:34.543Z,2.37
2022-08-17T21:08:13.065Z,2.30
2022-08-17T21:10:40.093Z,2.30
2022-08-17T21:13:15.430Z,2.20
2022-08-17T21:15:57.095Z,2.70
2022-08-17T21:18:27.224Z,2.63
2022-08-17T21:21:27.576Z,2.40
2022-08-17T21:24:07.626Z,2.90
2022-08-17T21:26:50.687Z,2.60
2022-08-17T21:29:31.086Z,2.60
2022-08-17T21:31:59.193Z,2.30
2022-08-17T21:34:39.740Z,2.47
2022-08-17T21:37:29.445Z,2.40
2022-08-17T21:40:19.677Z,2.60
2022-08-17T21:42:51.297Z,2.57
2022-08-17T21:45:27.382Z,2.73
2022-08-17T21:48:24.019Z,2.40
2022-08-17T21:51:03.533Z,2.60
2022-08-17T21:53:36.961Z,2.20
2022-08-17T21:56:04.678Z,2.60
2022-08-17T21:58:33.407Z,2.33
2022-08-17T22:01:19.314Z,2.23
2022-08-17T22:04:00.421Z,2.50
2022-08-17T22:06:38.792Z,2.70
2022-08-17T22:09:18.509Z,2.63
2022-08-17T22:12:00.184Z,2.23
2022-08-17T22:14:53.190Z,2.30
2022-08-17T22:17:20.370Z,2.47
2022-08-17T22:19:50.178Z,2.40
2022-08-17T22:22:32.469Z,2.20
2022-08-17T22:25:06.794Z,2.57
2022-08-17T22:27:56.406Z,2.30
2022-08-17T22:30:38.748Z,2.50
2022-08-17T22:33:33.351Z,2.40
2022-08-17T22:36:12.263Z,2.53
2022-08-17T22:38:40.700Z,2.20
2022-08-17T22:41:18.205Z,2.30
2022-08-17T22:43:44.984Z,2.60
2022-08-17T22:46:11.795Z,2.53
2022-08-17T22:48:38.328Z,2.30
2022-08-17T22:51:12.213Z,2.50
2022-08-17T22:54:04.376Z,2.90
2022-08-17T22:56:49.544Z,2.47
2022-08-17T22:59:36.105Z,2.57
2022-08-17T23:02:20.754Z,2.33
2022-08-17T23:04:52.805Z,2.20
2022-08-17T23:07:20.478Z,2.33
2022-08-17T23:09:47.303Z,2.43
2022-08-17T23:12:16.939Z,2.47
2022-08-17T23:14:45.980Z,2.53
2022-08-17T23:17:12.808Z,2.57
2022-08-17T23:19:39.439Z,2.50
2022-08-17T23:22:07.512Z,2.57
2022-08-17T23:24:45.526Z,2.17
2022-08-17T23:27:12.238Z,2.40
2022-08-17T23:29:42.017Z,2.17
2022-08-17T23:32:13.815Z,2.50
2022-08-17T23:34:40.932Z,2.40
2022-08-17T23:37:08.214Z,2.03
2022-08-17T23:39:34.942Z,2.27
2022-08-17T23:42:05.050Z,2.50
2022-08-17T23:44:32.587Z,2.17
2022-08-17T23:46:59.183Z,2.50
2022-08-17T23:49:25.732Z,2.30
2022-08-17T23:51:54.675Z,2.07
2022-08-17T23:54:25.952Z,2.70
2022-08-17T23:56:52.826Z,2.33
2022-08-17T23:59:20.281Z,2.23
